Time;durP1;ratioP1;P1;durP2;ratioP2;P2;SDS_P1;SDS_P2;PMS_P1;PMS_P2;Temp;Humidity;BMP_temperature;BMP_pressure;BME280_temperature;BME280_humidity;BME280_pressure;Samples;Min_cycle;Max_cycle;Signal;HPM_P1;HPM_P2
2022/08/23 00:01:46;;;;;;;11.00;2.30;;;;;;;;;;5046124;28;20029;-67
2022/08/23 00:04:18;;;;;;;10.35;2.83;;;;;;;;;;5045967;28;20067;-67
2022/08/23 00:06:45;;;;;;;13.30;2.60;;;;;;;;;;5046473;28;20071;-68
2022/08/23 00:09:11;;;;;;;10.23;2.50;;;;;;;;;;5046664;28;20040;-67
2022/08/23 00:11:40;;;;;;;11.35;2.53;;;;;;;;;;5045743;28;20023;-67
2022/08/23 00:14:08;;;;;;;10.70;2.13;;;;;;;;;;5047890;28;20020;-67
2022/08/23 00:16:34;;;;;;;9.93;2.40;;;;;;;;;;5040813;28;20462;-67
2022/08/23 00:19:01;;;;;;;12.10;2.75;;;;;;;;;;5044856;28;20367;-67
2022/08/23 00:21:28;;;;;;;9.65;2.33;;;;;;;;;;5060048;28;20083;-67
2022/08/23 00:23:54;;;;;;;11.70;2.92;;;;;;;;;;5044161;28;20024;-67
2022/08/23 00:26:20;;;;;;;9.75;2.53;;;;;;;;;;5046775;28;20037;-68
2022/08/23 00:28:48;;;;;;;9.65;2.47;;;;;;;;;;5039936;28;20615;-67
2022/08/23 00:31:14;;;;;;;12.13;2.38;;;;;;;;;;5053161;28;20521;-67
2022/08/23 00:33:40;;;;;;;10.57;2.33;;;;;;;;;;5044420;28;20455;-67
2022/08/23 00:36:06;;;;;;;8.10;2.33;;;;;;;;;;5049550;28;20067;-68
2022/08/23 00:38:32;;;;;;;7.95;2.10;;;;;;;;;;5039419;28;20620;-67
2022/08/23 00:40:58;;;;;;;10.95;2.15;;;;;;;;;;5049439;28;20415;-67
2022/08/23 00:49:08;;;;;;;8.70;2.50;;;;;;;;;;5046234;28;20536;-67
2022/08/23 00:51:40;;;;;;;10.70;2.35;;;;;;;;;;5042749;28;20040;-67
2022/08/23 00:54:08;;;;;;;9.40;2.40;;;;;;;;;;5043950;28;20032;-67
2022/08/23 00:56:35;;;;;;;9.35;2.55;;;;;;;;;;5046437;28;20127;-67
2022/08/23 00:59:01;;;;;;;14.43;2.85;;;;;;;;;;5046197;28;20104;-67
2022/08/23 01:01:27;;;;;;;9.70;2.17;;;;;;;;;;5044180;28;20502;-67
2022/08/23 01:03:55;;;;;;;8.65;2.30;;;;;;;;;;5049724;28;20114;-67
2022/08/23 01:06:27;;;;;;;8.10;2.42;;;;;;;;;;5050116;28;20020;-67
2022/08/23 01:08:56;;;;;;;11.95;2.58;;;;;;;;;;5047775;28;20031;-67
2022/08/23 01:11:28;;;;;;;10.20;2.50;;;;;;;;;;5052282;28;20036;-69
2022/08/23 01:13:56;;;;;;;10.77;2.22;;;;;;;;;;5050832;28;20027;-69
2022/08/23 01:16:27;;;;;;;9.63;2.10;;;;;;;;;;5048057;28;20892;-69
2022/08/23 01:18:54;;;;;;;9.02;2.60;;;;;;;;;;5065141;28;20776;-67
2022/08/23 01:21:26;;;;;;;11.05;2.45;;;;;;;;;;5046874;28;20188;-68
2022/08/23 01:23:54;;;;;;;9.35;2.28;;;;;;;;;;5044996;28;20072;-68
2022/08/23 01:26:21;;;;;;;12.00;2.70;;;;;;;;;;5054392;28;20139;-68
2022/08/23 01:28:48;;;;;;;13.00;2.88;;;;;;;;;;5045405;28;20113;-68
2022/08/23 01:31:14;;;;;;;7.80;2.15;;;;;;;;;;5045065;28;20118;-68
2022/08/23 01:33:41;;;;;;;9.10;2.33;;;;;;;;;;5049916;28;20034;-68
2022/08/23 01:36:12;;;;;;;9.55;2.67;;;;;;;;;;5051281;28;20076;-68
2022/08/23 01:38:38;;;;;;;9.23;2.50;;;;;;;;;;5045252;28;20044;-68
2022/08/23 01:41:05;;;;;;;9.77;2.30;;;;;;;;;;5043487;28;20033;-68
2022/08/23 01:43:32;;;;;;;7.45;2.22;;;;;;;;;;5043137;28;20395;-68
2022/08/23 01:45:58;;;;;;;11.38;2.33;;;;;;;;;;5043545;28;20032;-68
2022/08/23 01:48:24;;;;;;;7.75;1.90;;;;;;;;;;5041894;28;20071;-69
2022/08/23 01:50:50;;;;;;;8.55;2.17;;;;;;;;;;5042776;28;20135;-68
2022/08/23 01:53:17;;;;;;;8.10;2.20;;;;;;;;;;5051407;28;20673;-68
2022/08/23 01:55:43;;;;;;;8.68;2.10;;;;;;;;;;5042539;28;20436;-68
2022/08/23 01:58:09;;;;;;;9.02;2.20;;;;;;;;;;5050559;28;20596;-68
2022/08/23 02:00:37;;;;;;;8.38;2.00;;;;;;;;;;5039861;28;20480;-68
2022/08/23 02:03:04;;;;;;;10.85;2.67;;;;;;;;;;5040967;28;20033;-68
2022/08/23 02:05:30;;;;;;;9.38;2.40;;;;;;;;;;5037274;28;20037;-68
2022/08/23 02:08:59;;;;;;;8.85;2.47;;;;;;;;;;5040782;28;20036;-68
2022/08/23 02:10:42;;;;;;;10.52;2.42;;;;;;;;;;5038355;28;20424;-68
2022/08/23 02:13:08;;;;;;;8.15;2.50;;;;;;;;;;5045420;28;20032;-68
2022/08/23 02:15:34;;;;;;;7.55;2.03;;;;;;;;;;5038506;28;20028;-68
2022/08/23 02:18:00;;;;;;;10.65;2.63;;;;;;;;;;5047883;28;20722;-68
2022/08/23 02:20:26;;;;;;;10.68;2.75;;;;;;;;;;5040388;28;20337;-68
2022/08/23 02:22:52;;;;;;;10.18;2.63;;;;;;;;;;5052907;28;20021;-68
2022/08/23 02:25:19;;;;;;;7.43;2.10;;;;;;;;;;5043163;28;20446;-68
2022/08/23 02:27:45;;;;;;;9.00;2.47;;;;;;;;;;5036090;28;20376;-68
2022/08/23 02:30:11;;;;;;;6.80;2.00;;;;;;;;;;5043420;28;20032;-68
2022/08/23 02:32:37;;;;;;;9.43;2.40;;;;;;;;;;5046050;28;20481;-68
2022/08/23 02:35:03;;;;;;;8.07;2.50;;;;;;;;;;5051018;28;20655;-68
2022/08/23 02:37:30;;;;;;;9.48;2.45;;;;;;;;;;5044149;28;20142;-67
2022/08/23 02:39:56;;;;;;;9.35;2.53;;;;;;;;;;5044033;28;20028;-67
2022/08/23 02:42:22;;;;;;;10.90;2.88;;;;;;;;;;5045962;28;20136;-68
2022/08/23 02:44:48;;;;;;;8.93;2.10;;;;;;;;;;5045284;28;20037;-68
2022/08/23 02:47:14;;;;;;;8.68;2.15;;;;;;;;;;5047310;28;20043;-68
2022/08/23 02:49:40;;;;;;;10.65;2.40;;;;;;;;;;5044291;28;20032;-68
2022/08/23 02:52:07;;;;;;;8.57;2.30;;;;;;;;;;5041311;28;20097;-68
2022/08/23 02:54:33;;;;;;;12.27;2.83;;;;;;;;;;5037174;28;20105;-68
2022/08/23 02:57:00;;;;;;;11.13;2.70;;;;;;;;;;5046471;28;20314;-68
2022/08/23 02:59:26;;;;;;;10.13;2.38;;;;;;;;;;5042507;28;20783;-69
2022/08/23 03:01:52;;;;;;;7.65;2.30;;;;;;;;;;5049503;28;20033;-68
2022/08/23 03:04:18;;;;;;;8.63;2.10;;;;;;;;;;5048523;28;20123;-68
2022/08/23 03:06:44;;;;;;;7.70;2.17;;;;;;;;;;5043767;28;20028;-68
2022/08/23 03:09:11;;;;;;;9.95;2.10;;;;;;;;;;5047806;28;20768;-68
2022/08/23 03:11:37;;;;;;;10.13;2.65;;;;;;;;;;5046625;28;20040;-68
2022/08/23 03:14:03;;;;;;;8.63;2.20;;;;;;;;;;5040765;28;20040;-68
2022/08/23 03:16:30;;;;;;;8.68;2.45;;;;;;;;;;5037998;28;20049;-68
2022/08/23 03:18:56;;;;;;;8.13;2.30;;;;;;;;;;5045835;28;20036;-68
2022/08/23 03:21:22;;;;;;;9.70;2.30;;;;;;;;;;5045772;28;20064;-68
2022/08/23 03:23:48;;;;;;;7.35;1.98;;;;;;;;;;5043349;28;20028;-67
2022/08/23 03:26:15;;;;;;;8.52;2.22;;;;;;;;;;5049878;28;20262;-68
2022/08/23 03:28:42;;;;;;;9.43;2.20;;;;;;;;;;5046191;28;20031;-67
2022/08/23 03:31:09;;;;;;;7.30;2.05;;;;;;;;;;5051912;28;20079;-68
2022/08/23 03:33:37;;;;;;;10.20;2.60;;;;;;;;;;5044340;28;20457;-68
2022/08/23 03:36:05;;;;;;;8.77;2.42;;;;;;;;;;5045372;28;20024;-68
2022/08/23 03:38:31;;;;;;;12.75;2.80;;;;;;;;;;5048235;28;20532;-67
2022/08/23 03:40:58;;;;;;;10.88;2.50;;;;;;;;;;5054378;28;20034;-68
2022/08/23 03:43:25;;;;;;;9.35;2.58;;;;;;;;;;5049131;28;20573;-68
2022/08/23 03:45:51;;;;;;;7.80;2.20;;;;;;;;;;5045171;28;20042;-68
2022/08/23 03:48:17;;;;;;;7.80;2.10;;;;;;;;;;5046445;28;20487;-68
2022/08/23 03:50:43;;;;;;;7.88;2.20;;;;;;;;;;5044021;28;20458;-68
2022/08/23 03:53:10;;;;;;;9.23;2.40;;;;;;;;;;5050945;28;20062;-68
2022/08/23 03:55:36;;;;;;;12.75;2.47;;;;;;;;;;5042367;28;20485;-67
2022/08/23 03:58:02;;;;;;;8.10;2.20;;;;;;;;;;5051896;28;20029;-67
2022/08/23 04:00:28;;;;;;;8.82;2.08;;;;;;;;;;5049030;28;20069;-69
2022/08/23 04:02:56;;;;;;;9.68;2.35;;;;;;;;;;5051610;28;20143;-67
2022/08/23 04:05:22;;;;;;;9.10;2.00;;;;;;;;;;5054003;28;20111;-67
2022/08/23 04:07:48;;;;;;;6.47;1.80;;;;;;;;;;5048199;28;20033;-67
2022/08/23 04:10:15;;;;;;;9.43;2.30;;;;;;;;;;5050906;28;20500;-67
2022/08/23 04:12:41;;;;;;;7.53;2.03;;;;;;;;;;5043298;28;20033;-68
2022/08/23 04:15:08;;;;;;;6.07;1.70;;;;;;;;;;5046586;28;20029;-68
2022/08/23 04:17:35;;;;;;;7.47;2.10;;;;;;;;;;5042916;28;20044;-67
2022/08/23 04:20:01;;;;;;;7.82;2.30;;;;;;;;;;5049985;28;20474;-67
2022/08/23 04:22:27;;;;;;;8.50;2.05;;;;;;;;;;5042941;28;20032;-68
2022/08/23 04:24:54;;;;;;;7.10;2.00;;;;;;;;;;5050496;28;20103;-68
2022/08/23 04:27:21;;;;;;;6.80;1.88;;;;;;;;;;5042010;28;20482;-68
2022/08/23 04:29:47;;;;;;;6.18;1.75;;;;;;;;;;5044502;28;20019;-68
2022/08/23 04:32:14;;;;;;;7.25;2.03;;;;;;;;;;5047965;28;20628;-68
2022/08/23 04:34:41;;;;;;;7.22;1.95;;;;;;;;;;5041228;28;20070;-68
2022/08/23 04:37:08;;;;;;;7.80;2.10;;;;;;;;;;5051023;28;20032;-68
2022/08/23 04:42:16;;;;;;;7.53;1.85;;;;;;;;;;5043281;28;20032;-69
2022/08/23 04:42:22;;;;;;;7.72;1.90;;;;;;;;;;5045521;28;20034;-68
2022/08/23 04:44:48;;;;;;;5.65;1.77;;;;;;;;;;5043160;28;20063;-68
2022/08/23 04:47:14;;;;;;;6.30;1.60;;;;;;;;;;5050204;28;20045;-68
2022/08/23 04:49:40;;;;;;;6.35;1.80;;;;;;;;;;5044907;28;20465;-68
2022/08/23 04:52:07;;;;;;;8.90;1.90;;;;;;;;;;5046336;28;20386;-68
2022/08/23 04:54:33;;;;;;;8.00;2.13;;;;;;;;;;5042970;28;20033;-68
2022/08/23 04:56:59;;;;;;;8.95;1.90;;;;;;;;;;5045539;28;20375;-68
2022/08/23 04:59:25;;;;;;;9.68;2.40;;;;;;;;;;5047025;28;20132;-68
2022/08/23 05:01:51;;;;;;;8.48;2.10;;;;;;;;;;5051453;28;20024;-68
2022/08/23 05:04:18;;;;;;;6.40;1.98;;;;;;;;;;5049687;28;20131;-68
2022/08/23 05:06:44;;;;;;;8.65;2.00;;;;;;;;;;5047495;28;20119;-68
2022/08/23 05:09:10;;;;;;;10.77;2.25;;;;;;;;;;5049279;28;20036;-68
2022/08/23 05:11:37;;;;;;;8.13;2.00;;;;;;;;;;5043008;28;20431;-68
2022/08/23 05:14:03;;;;;;;12.25;2.30;;;;;;;;;;5043946;28;20060;-67
2022/08/23 05:16:29;;;;;;;11.18;2.20;;;;;;;;;;5047539;28;20234;-68
2022/08/23 05:18:56;;;;;;;12.85;2.08;;;;;;;;;;5044079;28;20424;-68
2022/08/23 05:21:23;;;;;;;12.07;2.10;;;;;;;;;;5043911;28;20028;-68
2022/08/23 05:23:49;;;;;;;10.85;2.20;;;;;;;;;;5040588;28;20493;-67
2022/08/23 05:26:15;;;;;;;9.85;2.10;;;;;;;;;;5046317;28;20024;-68
2022/08/23 05:28:43;;;;;;;7.32;1.98;;;;;;;;;;5029252;28;20069;-68
2022/08/23 05:31:11;;;;;;;7.35;1.80;;;;;;;;;;5044621;28;20032;-68
2022/08/23 05:33:37;;;;;;;10.00;2.00;;;;;;;;;;5050389;28;20470;-68
2022/08/23 05:36:04;;;;;;;8.23;1.73;;;;;;;;;;5049896;28;20406;-67
2022/08/23 05:38:31;;;;;;;15.48;2.72;;;;;;;;;;5043365;28;20040;-67
2022/08/23 05:41:00;;;;;;;12.10;2.25;;;;;;;;;;5051648;28;20042;-68
2022/08/23 05:43:27;;;;;;;9.25;2.35;;;;;;;;;;5048545;28;20025;-68
2022/08/23 05:46:01;;;;;;;8.93;2.33;;;;;;;;;;5047016;28;20044;-68
2022/08/23 05:48:27;;;;;;;11.48;2.75;;;;;;;;;;5040303;28;20032;-68
2022/08/23 05:50:54;;;;;;;10.70;2.40;;;;;;;;;;5043834;28;20371;-68
2022/08/23 05:53:20;;;;;;;10.93;2.72;;;;;;;;;;5051006;28;20037;-70
2022/08/23 05:55:46;;;;;;;6.93;2.17;;;;;;;;;;5038492;28;20631;-68
2022/08/23 05:58:12;;;;;;;7.50;2.10;;;;;;;;;;5043727;28;20047;-68
2022/08/23 06:00:38;;;;;;;8.00;2.20;;;;;;;;;;5042126;28;20119;-67
2022/08/23 06:03:04;;;;;;;6.85;2.28;;;;;;;;;;5043452;28;20037;-68
2022/08/23 06:05:30;;;;;;;8.15;2.50;;;;;;;;;;5053061;28;20569;-68
2022/08/23 06:07:58;;;;;;;8.25;2.25;;;;;;;;;;5044475;28;20027;-67
2022/08/23 06:10:24;;;;;;;7.03;1.80;;;;;;;;;;5044613;28;20129;-67
2022/08/23 06:12:51;;;;;;;7.13;2.03;;;;;;;;;;5041494;28;20302;-68
2022/08/23 06:15:17;;;;;;;6.18;1.80;;;;;;;;;;5038386;28;20032;-68
2022/08/23 06:17:43;;;;;;;6.47;2.00;;;;;;;;;;5036757;28;20711;-67
2022/08/23 06:20:09;;;;;;;9.18;2.03;;;;;;;;;;5038377;28;20795;-68
2022/08/23 06:22:36;;;;;;;9.32;2.85;;;;;;;;;;5042360;28;20342;-68
2022/08/23 06:25:02;;;;;;;14.82;4.00;;;;;;;;;;5041148;28;20396;-68
2022/08/23 06:27:28;;;;;;;10.15;3.15;;;;;;;;;;5037529;28;20388;-68
2022/08/23 06:29:54;;;;;;;10.18;2.78;;;;;;;;;;5042148;28;20124;-68
2022/08/23 06:32:20;;;;;;;11.25;3.10;;;;;;;;;;5040380;28;20025;-68
2022/08/23 06:34:46;;;;;;;16.77;3.97;;;;;;;;;;5033486;28;20032;-68
2022/08/23 06:37:13;;;;;;;12.68;4.00;;;;;;;;;;5042461;28;20028;-67
2022/08/23 06:39:40;;;;;;;11.75;4.00;;;;;;;;;;5017876;28;20048;-67
2022/08/23 06:42:11;;;;;;;11.02;3.45;;;;;;;;;;5009920;28;20123;-67
2022/08/23 06:44:37;;;;;;;12.10;3.47;;;;;;;;;;5047678;28;20071;-67
2022/08/23 06:47:04;;;;;;;11.18;3.80;;;;;;;;;;5054793;28;20032;-67
2022/08/23 06:49:30;;;;;;;11.30;3.53;;;;;;;;;;5051404;28;20047;-67
2022/08/23 06:51:58;;;;;;;15.55;3.88;;;;;;;;;;5056077;28;20052;-67
2022/08/23 06:54:26;;;;;;;11.88;3.15;;;;;;;;;;5059030;28;20086;-67
2022/08/23 06:56:52;;;;;;;11.93;3.15;;;;;;;;;;5050287;28;20050;-67
2022/08/23 06:59:19;;;;;;;13.10;3.20;;;;;;;;;;5054089;28;20158;-68
2022/08/23 07:01:56;;;;;;;11.50;2.70;;;;;;;;;;5042833;28;20288;-69
2022/08/23 07:04:25;;;;;;;12.35;3.78;;;;;;;;;;5051112;28;20035;-68
2022/08/23 07:06:52;;;;;;;14.00;3.00;;;;;;;;;;5055377;28;20024;-67
2022/08/23 07:09:18;;;;;;;12.00;2.60;;;;;;;;;;5055954;28;20025;-67
2022/08/23 07:11:45;;;;;;;14.55;2.58;;;;;;;;;;5057385;28;20493;-67
2022/08/23 07:14:12;;;;;;;10.30;2.88;;;;;;;;;;5054395;28;20017;-67
2022/08/23 07:16:40;;;;;;;9.52;2.70;;;;;;;;;;5024993;28;20494;-67
2022/08/23 07:19:07;;;;;;;8.38;2.40;;;;;;;;;;5013883;28;20067;-67
2022/08/23 07:21:34;;;;;;;9.70;2.10;;;;;;;;;;5010720;28;20036;-67
2022/08/23 07:24:00;;;;;;;8.13;1.80;;;;;;;;;;5015819;28;20689;-67
2022/08/23 07:26:27;;;;;;;7.00;2.00;;;;;;;;;;5011095;28;20036;-67
2022/08/23 07:28:53;;;;;;;10.02;2.25;;;;;;;;;;5020805;28;20031;-67
2022/08/23 07:31:19;;;;;;;9.48;1.88;;;;;;;;;;5016389;28;20277;-67
2022/08/23 07:33:46;;;;;;;8.48;2.13;;;;;;;;;;5013934;28;20864;-66
2022/08/23 07:36:17;;;;;;;9.82;2.08;;;;;;;;;;5017933;28;20500;-66
2022/08/23 07:38:44;;;;;;;7.07;1.92;;;;;;;;;;5013038;28;20235;-67
2022/08/23 07:41:11;;;;;;;7.63;1.90;;;;;;;;;;5018638;28;20488;-67
2022/08/23 07:43:38;;;;;;;12.40;2.05;;;;;;;;;;5010829;28;20561;-67
2022/08/23 07:46:05;;;;;;;6.40;1.70;;;;;;;;;;5015423;28;20033;-67
2022/08/23 07:48:32;;;;;;;9.48;1.98;;;;;;;;;;5014115;28;20419;-67
2022/08/23 07:51:00;;;;;;;8.32;1.98;;;;;;;;;;5014553;28;20029;-66
2022/08/23 07:53:26;;;;;;;7.57;1.75;;;;;;;;;;5030385;28;20253;-67
2022/08/23 07:55:53;;;;;;;8.05;1.90;;;;;;;;;;5058069;28;20713;-67
2022/08/23 07:58:21;;;;;;;5.07;1.60;;;;;;;;;;5055761;28;20016;-66
2022/08/23 08:00:47;;;;;;;8.52;1.73;;;;;;;;;;5054843;28;20042;-66
2022/08/23 08:03:15;;;;;;;6.60;1.73;;;;;;;;;;5055285;28;20569;-68
2022/08/23 08:05:41;;;;;;;8.52;1.92;;;;;;;;;;5053210;28;20031;-68
2022/08/23 08:08:08;;;;;;;5.68;1.50;;;;;;;;;;5057856;28;20290;-68
2022/08/23 08:10:39;;;;;;;5.93;1.63;;;;;;;;;;5057507;28;20078;-68
2022/08/23 08:13:05;;;;;;;9.13;1.92;;;;;;;;;;5057327;28;20272;-67
2022/08/23 08:15:32;;;;;;;5.90;1.50;;;;;;;;;;5046083;28;20025;-68
2022/08/23 08:17:58;;;;;;;7.10;1.50;;;;;;;;;;5053983;28;20565;-70
2022/08/23 08:20:25;;;;;;;7.50;1.63;;;;;;;;;;5060117;28;20055;-68
2022/08/23 08:22:51;;;;;;;7.55;1.67;;;;;;;;;;5073534;28;20029;-68
2022/08/23 08:25:18;;;;;;;6.15;1.63;;;;;;;;;;5058401;28;20025;-67
2022/08/23 08:27:45;;;;;;;7.32;1.83;;;;;;;;;;5054440;28;20712;-67
2022/08/23 08:30:12;;;;;;;6.75;1.42;;;;;;;;;;5057527;28;20260;-67
2022/08/23 08:32:38;;;;;;;7.40;1.50;;;;;;;;;;5052425;28;20059;-67
2022/08/23 08:35:05;;;;;;;4.63;1.30;;;;;;;;;;5061178;28;20027;-67
2022/08/23 08:37:32;;;;;;;4.90;1.08;;;;;;;;;;5056879;28;20052;-67
2022/08/23 08:39:58;;;;;;;6.57;1.25;;;;;;;;;;5056957;28;20306;-67
2022/08/23 08:42:37;;;;;;;6.15;1.48;;;;;;;;;;5058469;28;20039;-67
2022/08/23 08:45:05;;;;;;;6.95;1.48;;;;;;;;;;5059255;28;20029;-68
2022/08/23 08:47:38;;;;;;;5.38;1.50;;;;;;;;;;5054164;28;20048;-67
2022/08/23 08:50:16;;;;;;;5.47;1.50;;;;;;;;;;5056704;28;20418;-67
2022/08/23 08:52:44;;;;;;;6.13;1.67;;;;;;;;;;5069708;28;20039;-67
2022/08/23 08:55:16;;;;;;;6.88;1.40;;;;;;;;;;5058467;28;20092;-67
2022/08/23 08:57:44;;;;;;;4.75;1.20;;;;;;;;;;5059192;28;20108;-67
2022/08/23 09:00:16;;;;;;;6.93;1.42;;;;;;;;;;5060089;28;20115;-67
2022/08/23 09:02:43;;;;;;;6.68;1.40;;;;;;;;;;5071768;28;20035;-66
2022/08/23 09:05:18;;;;;;;6.72;1.30;;;;;;;;;;5060224;28;20105;-66
2022/08/23 09:07:48;;;;;;;5.25;1.08;;;;;;;;;;5057144;28;20067;-65
2022/08/23 09:10:33;;;;;;;5.18;1.30;;;;;;;;;;5061617;28;20467;-65
2022/08/23 09:13:35;;;;;;;6.30;1.13;;;;;;;;;;5053996;28;20373;-67
2022/08/23 09:16:19;;;;;;;7.78;1.40;;;;;;;;;;5028957;28;20025;-67
2022/08/23 09:18:46;;;;;;;6.28;1.13;;;;;;;;;;5027935;28;23934;-64
2022/08/23 09:21:14;;;;;;;5.20;1.08;;;;;;;;;;5034478;28;20037;-65
2022/08/23 09:23:44;;;;;;;5.30;1.23;;;;;;;;;;5032142;28;21826;-65
2022/08/23 09:26:17;;;;;;;7.78;1.48;;;;;;;;;;5031972;28;20198;-67
2022/08/23 09:28:45;;;;;;;5.13;1.27;;;;;;;;;;5014053;28;20121;-67
2022/08/23 09:31:11;;;;;;;4.65;1.13;;;;;;;;;;5035511;28;20556;-66
2022/08/23 09:33:42;;;;;;;5.80;1.38;;;;;;;;;;5031695;28;20131;-66
2022/08/23 09:36:22;;;;;;;5.32;1.20;;;;;;;;;;5033307;28;20020;-67
2022/08/23 09:38:56;;;;;;;4.45;1.05;;;;;;;;;;5026725;28;20079;-68
2022/08/23 09:41:32;;;;;;;5.78;1.08;;;;;;;;;;5030677;28;20017;-67
2022/08/23 09:44:01;;;;;;;4.57;1.10;;;;;;;;;;5032040;28;20568;-67
2022/08/23 09:46:30;;;;;;;4.13;1.20;;;;;;;;;;5031867;28;20612;-67
2022/08/23 09:48:57;;;;;;;6.40;1.15;;;;;;;;;;5036207;28;20366;-67
2022/08/23 09:51:41;;;;;;;6.10;1.27;;;;;;;;;;5053603;28;20545;-67
2022/08/23 09:54:12;;;;;;;5.55;1.20;;;;;;;;;;5054332;28;20422;-67
2022/08/23 09:56:40;;;;;;;4.55;1.30;;;;;;;;;;5052405;28;20126;-67
2022/08/23 09:59:27;;;;;;;5.80;1.30;;;;;;;;;;5058384;28;20023;-67
2022/08/23 10:01:55;;;;;;;6.18;1.30;;;;;;;;;;5044758;28;20033;-67
2022/08/23 10:04:23;;;;;;;5.07;1.00;;;;;;;;;;5057841;28;20031;-66
2022/08/23 10:06:49;;;;;;;8.68;1.33;;;;;;;;;;5055391;28;20020;-65
2022/08/23 10:09:25;;;;;;;4.10;0.90;;;;;;;;;;5056864;28;20028;-68
2022/08/23 10:11:51;;;;;;;5.80;0.93;;;;;;;;;;5055075;28;20430;-67
2022/08/23 10:14:20;;;;;;;5.07;1.20;;;;;;;;;;5038059;28;20028;-67
2022/08/23 10:16:57;;;;;;;4.63;1.20;;;;;;;;;;5048879;28;22351;-66
2022/08/23 10:19:29;;;;;;;6.85;1.40;;;;;;;;;;5052848;28;20127;-65
2022/08/23 10:22:11;;;;;;;5.03;1.30;;;;;;;;;;5059223;28;20054;-65
2022/08/23 10:24:49;;;;;;;5.47;1.30;;;;;;;;;;5051346;28;20116;-65
2022/08/23 10:30:36;;;;;;;7.25;1.40;;;;;;;;;;5055216;28;20460;-67
2022/08/23 10:33:02;;;;;;;7.03;1.63;;;;;;;;;;5051646;28;20462;-65
2022/08/23 10:35:31;;;;;;;7.38;1.50;;;;;;;;;;5047942;28;20028;-65
2022/08/23 10:38:16;;;;;;;10.02;1.38;;;;;;;;;;5057155;28;20055;-66
2022/08/23 10:40:42;;;;;;;7.18;1.40;;;;;;;;;;5049209;28;20055;-65
2022/08/23 10:43:21;;;;;;;5.88;1.23;;;;;;;;;;5053528;28;20032;-66
2022/08/23 10:45:48;;;;;;;7.22;1.70;;;;;;;;;;5051457;28;20028;-65
2022/08/23 10:48:27;;;;;;;7.38;1.60;;;;;;;;;;5056509;28;20135;-66
2022/08/23 10:50:56;;;;;;;8.40;1.50;;;;;;;;;;5055142;28;20041;-66
2022/08/23 10:53:23;;;;;;;7.93;1.55;;;;;;;;;;5056681;28;20105;-66
2022/08/23 10:56:06;;;;;;;5.38;1.40;;;;;;;;;;5051851;28;20024;-66
2022/08/23 10:58:38;;;;;;;7.72;1.73;;;;;;;;;;5048888;28;20115;-66
2022/08/23 11:01:06;;;;;;;6.25;1.40;;;;;;;;;;5052683;28;20043;-65
2022/08/23 11:03:41;;;;;;;6.38;1.52;;;;;;;;;;5051964;28;20497;-66
2022/08/23 11:06:43;;;;;;;7.47;1.83;;;;;;;;;;5054052;28;20371;-66
2022/08/23 11:09:18;;;;;;;6.82;1.80;;;;;;;;;;5005342;28;20038;-66
2022/08/23 11:12:05;;;;;;;6.93;1.60;;;;;;;;;;5003096;28;20048;-66
2022/08/23 11:14:31;;;;;;;8.40;1.98;;;;;;;;;;5003928;28;20180;-66
2022/08/23 11:16:59;;;;;;;6.82;1.58;;;;;;;;;;5004453;28;20038;-66
2022/08/23 11:19:44;;;;;;;8.57;1.95;;;;;;;;;;5006949;28;20038;-66
2022/08/23 11:22:21;;;;;;;5.80;1.50;;;;;;;;;;5004322;28;20068;-66
2022/08/23 11:24:50;;;;;;;8.20;1.50;;;;;;;;;;5004537;28;20472;-65
2022/08/23 11:27:45;;;;;;;8.52;1.60;;;;;;;;;;5006095;28;20025;-66
2022/08/23 11:30:30;;;;;;;6.15;1.60;;;;;;;;;;4967614;28;20268;-66
2022/08/23 11:33:00;;;;;;;6.75;1.77;;;;;;;;;;5000829;28;20475;-68
2022/08/23 11:35:26;;;;;;;7.05;1.60;;;;;;;;;;5003199;28;20033;-66
2022/08/23 11:37:57;;;;;;;6.55;1.40;;;;;;;;;;5003101;28;20033;-66
2022/08/23 11:40:36;;;;;;;6.50;1.58;;;;;;;;;;5002002;28;20518;-66
2022/08/23 11:43:05;;;;;;;7.22;1.60;;;;;;;;;;5024060;28;20044;-67
2022/08/23 11:45:37;;;;;;;7.18;1.70;;;;;;;;;;5054219;28;20024;-67
2022/08/23 11:48:04;;;;;;;6.75;1.60;;;;;;;;;;5055262;28;20140;-67
2022/08/23 11:50:49;;;;;;;6.63;1.33;;;;;;;;;;5048314;28;20639;-67
2022/08/23 11:53:21;;;;;;;6.85;1.50;;;;;;;;;;5068071;28;20044;-67
2022/08/23 11:56:06;;;;;;;9.55;2.08;;;;;;;;;;5050589;28;20036;-67
2022/08/23 11:58:59;;;;;;;8.30;1.85;;;;;;;;;;5052264;28;20123;-66
2022/08/23 12:01:35;;;;;;;8.60;1.92;;;;;;;;;;5040118;28;20409;-66
2022/08/23 12:04:09;;;;;;;7.88;1.60;;;;;;;;;;5053836;28;20176;-66
2022/08/23 12:06:45;;;;;;;8.63;2.00;;;;;;;;;;5048076;28;20458;-66
2022/08/23 12:09:23;;;;;;;10.05;2.10;;;;;;;;;;5069808;28;20369;-66
2022/08/23 12:11:52;;;;;;;8.02;1.73;;;;;;;;;;5066774;28;20045;-68
2022/08/23 12:14:35;;;;;;;8.27;1.70;;;;;;;;;;5058731;28;20382;-66
2022/08/23 12:17:03;;;;;;;7.07;1.88;;;;;;;;;;5052194;28;20531;-66
2022/08/23 12:19:32;;;;;;;11.90;1.50;;;;;;;;;;5049505;28;20112;-66
2022/08/23 12:22:05;;;;;;;8.82;1.30;;;;;;;;;;5059765;28;20035;-66
2022/08/23 12:24:32;;;;;;;6.70;1.63;;;;;;;;;;5050603;28;20036;-66
2022/08/23 12:27:11;;;;;;;6.25;1.42;;;;;;;;;;5051096;28;20688;-65
2022/08/23 12:30:04;;;;;;;7.47;1.60;;;;;;;;;;5052831;28;20103;-65
2022/08/23 12:32:48;;;;;;;6.90;1.55;;;;;;;;;;5023659;28;20478;-66
2022/08/23 12:35:17;;;;;;;9.10;1.70;;;;;;;;;;5050066;28;20510;-66
2022/08/23 12:37:52;;;;;;;13.57;2.10;;;;;;;;;;5045599;28;20032;-66
2022/08/23 12:40:38;;;;;;;8.57;1.90;;;;;;;;;;5048997;28;20037;-66
2022/08/23 12:43:04;;;;;;;9.75;1.45;;;;;;;;;;5051151;28;20043;-65
2022/08/23 12:45:36;;;;;;;6.28;1.60;;;;;;;;;;5049383;28;20031;-68
2022/08/23 12:48:02;;;;;;;8.32;1.55;;;;;;;;;;5055492;28;20032;-65
2022/08/23 12:50:39;;;;;;;6.00;1.40;;;;;;;;;;5047592;28;20028;-66
2022/08/23 12:53:09;;;;;;;7.68;1.70;;;;;;;;;;5053560;28;20045;-66
2022/08/23 12:55:39;;;;;;;6.47;1.40;;;;;;;;;;5047711;28;20037;-65
2022/08/23 12:58:06;;;;;;;7.07;1.42;;;;;;;;;;5057577;28;20672;-66
2022/08/23 13:00:42;;;;;;;6.93;1.38;;;;;;;;;;5048333;28;20110;-67
2022/08/23 13:03:08;;;;;;;;;;;;;;;;;;5050311;28;20016;-68
2022/08/23 13:05:46;;;;;;;6.00;1.50;;;;;;;;;;5046093;28;20333;-66
2022/08/23 13:08:19;;;;;;;5.93;1.40;;;;;;;;;;5052544;28;20094;-66
2022/08/23 13:10:46;;;;;;;6.35;1.40;;;;;;;;;;5045500;28;20337;-65
2022/08/23 13:13:14;;;;;;;6.30;1.30;;;;;;;;;;5053059;28;20031;-67
2022/08/23 13:15:42;;;;;;;5.15;1.20;;;;;;;;;;5046782;28;20028;-66
2022/08/23 13:18:08;;;;;;;6.57;1.50;;;;;;;;;;5053035;28;20043;-67
2022/08/23 13:20:34;;;;;;;6.88;1.70;;;;;;;;;;5049467;28;20033;-66
2022/08/23 13:23:02;;;;;;;8.30;1.55;;;;;;;;;;5053091;28;20088;-66
2022/08/23 13:25:33;;;;;;;6.22;1.48;;;;;;;;;;5047590;28;20028;-66
2022/08/23 13:28:04;;;;;;;6.78;1.48;;;;;;;;;;5053639;28;20123;-66
2022/08/23 13:30:32;;;;;;;9.98;1.60;;;;;;;;;;5048060;28;20024;-66
2022/08/23 13:33:08;;;;;;;6.28;1.40;;;;;;;;;;5048495;28;20507;-65
2022/08/23 13:35:38;;;;;;;6.05;1.30;;;;;;;;;;5049047;28;20023;-65
2022/08/23 13:38:07;;;;;;;6.10;1.40;;;;;;;;;;5051866;28;20021;-65
2022/08/23 13:40:39;;;;;;;4.40;1.20;;;;;;;;;;5043669;28;20312;-65
2022/08/23 13:43:07;;;;;;;4.18;1.13;;;;;;;;;;5069027;28;20397;-66
2022/08/23 13:45:34;;;;;;;7.82;1.40;;;;;;;;;;5050799;28;20059;-65
2022/08/23 13:48:12;;;;;;;6.72;1.33;;;;;;;;;;5065945;28;20567;-65
2022/08/23 13:50:38;;;;;;;5.72;1.60;;;;;;;;;;5049155;28;20029;-66
2022/08/23 13:53:05;;;;;;;7.22;1.52;;;;;;;;;;5050384;28;20055;-66
2022/08/23 13:55:34;;;;;;;4.80;1.33;;;;;;;;;;5046295;28;20025;-66
2022/08/23 13:58:00;;;;;;;8.20;1.52;;;;;;;;;;5053473;28;20053;-66
2022/08/23 14:00:26;;;;;;;6.85;1.20;;;;;;;;;;5048689;28;20052;-66
2022/08/23 14:02:52;;;;;;;7.95;1.30;;;;;;;;;;5049522;28;20493;-66
2022/08/23 14:05:20;;;;;;;5.80;1.38;;;;;;;;;;5049394;28;20024;-66
2022/08/23 14:07:47;;;;;;;5.35;1.20;;;;;;;;;;5048520;28;21196;-66
2022/08/23 14:10:16;;;;;;;7.43;1.35;;;;;;;;;;5053111;28;20026;-66
2022/08/23 14:12:43;;;;;;;9.98;1.30;;;;;;;;;;5047026;28;20031;-66
2022/08/23 14:15:09;;;;;;;3.80;1.08;;;;;;;;;;5051029;28;20047;-66
2022/08/23 14:17:39;;;;;;;5.80;1.23;;;;;;;;;;5045095;28;20071;-66
2022/08/23 14:20:07;;;;;;;4.03;1.17;;;;;;;;;;5051503;28;20466;-66
2022/08/23 14:22:34;;;;;;;6.00;1.30;;;;;;;;;;5050898;28;20040;-66
2022/08/23 14:25:00;;;;;;;4.78;1.20;;;;;;;;;;5053492;28;20406;-66
2022/08/23 14:27:26;;;;;;;6.18;1.25;;;;;;;;;;5054554;28;20518;-66
2022/08/23 14:29:52;;;;;;;6.68;1.60;;;;;;;;;;5049440;28;20059;-65
2022/08/23 14:32:18;;;;;;;8.23;1.35;;;;;;;;;;5048832;28;20036;-66
2022/08/23 14:34:44;;;;;;;7.78;1.50;;;;;;;;;;5045172;28;20107;-66
2022/08/23 14:37:10;;;;;;;8.57;1.67;;;;;;;;;;5052513;28;20029;-66
2022/08/23 14:39:36;;;;;;;9.75;2.00;;;;;;;;;;5045712;28;20564;-66
2022/08/23 14:42:04;;;;;;;9.77;2.03;;;;;;;;;;5055597;28;20033;-66
2022/08/23 14:44:30;;;;;;;6.20;1.65;;;;;;;;;;5046026;28;20471;-66
2022/08/23 14:46:56;;;;;;;8.18;1.60;;;;;;;;;;5053268;28;20051;-66
2022/08/23 14:49:23;;;;;;;9.60;1.50;;;;;;;;;;5051903;28;20585;-66
2022/08/23 14:51:49;;;;;;;14.75;1.85;;;;;;;;;;5051286;28;20052;-66
2022/08/23 14:54:21;;;;;;;23.83;2.85;;;;;;;;;;5052618;28;20409;-67
2022/08/23 14:56:47;;;;;;;18.58;2.17;;;;;;;;;;5054825;28;20068;-65
2022/08/23 14:59:14;;;;;;;6.95;1.60;;;;;;;;;;5055679;28;20024;-65
2022/08/23 15:01:40;;;;;;;7.20;1.58;;;;;;;;;;5048900;28;20032;-65